TimeCDT,TemperatureF,Dew PointF,Humidity,Sea Level PressureIn,VisibilityMPH,Wind Direction,Wind SpeedMPH,Gust SpeedMPH,PrecipitationIn,Events,Conditions,WindDirDegrees,DateUTC
12:53 AM,75.0,69.1,82,30.02,10.0,ENE,4.6,-,N/A,,Overcast,60,2013-08-19 05:53:00
1:40 AM,75.2,69.8,83,30.03,10.0,Variable,6.9,-,N/A,,Overcast,0,2013-08-19 06:40:00
1:53 AM,75.0,69.1,82,30.01,10.0,ENE,3.5,-,N/A,,Overcast,70,2013-08-19 06:53:00
2:53 AM,73.9,69.1,85,30.00,10.0,East,8.1,-,N/A,,Overcast,80,2013-08-19 07:53:00
3:53 AM,73.9,69.1,85,30.00,10.0,East,4.6,-,N/A,,Overcast,90,2013-08-19 08:53:00
4:53 AM,73.9,69.1,85,30.01,10.0,Calm,Calm,-,N/A,,Overcast,0,2013-08-19 09:53:00
5:22 AM,73.4,69.8,88,30.03,10.0,Calm,Calm,-,N/A,,Overcast,0,2013-08-19 10:22:00
5:53 AM,73.9,69.1,85,30.01,10.0,Calm,Calm,-,N/A,,Overcast,0,2013-08-19 10:53:00
6:33 AM,73.4,69.8,88,30.04,10.0,North,5.8,-,N/A,,Overcast,360,2013-08-19 11:33:00
6:53 AM,73.0,69.1,87,30.03,10.0,North,4.6,-,N/A,,Overcast,10,2013-08-19 11:53:00
7:53 AM,73.9,69.1,85,30.04,10.0,Variable,6.9,-,N/A,,Overcast,0,2013-08-19 12:53:00
8:10 AM,73.4,69.8,88,30.06,10.0,Calm,Calm,-,N/A,,Overcast,0,2013-08-19 13:10:00
8:53 AM,73.9,69.1,85,30.05,9.0,NE,4.6,-,N/A,,Overcast,50,2013-08-19 13:53:00
9:53 AM,75.9,69.1,79,30.06,10.0,Variable,3.5,-,N/A,,Overcast,0,2013-08-19 14:53:00
10:53 AM,78.1,70.0,76,30.07,10.0,NW,6.9,-,N/A,,Overcast,310,2013-08-19 15:53:00
11:53 AM,77.0,69.1,76,30.06,10.0,Variable,3.5,-,N/A,,Overcast,0,2013-08-19 16:53:00
12:28 PM,78.8,69.8,74,30.08,10.0,NNW,4.6,-,N/A,,Overcast,340,2013-08-19 17:28:00
12:53 PM,79.0,70.0,74,30.05,10.0,NE,4.6,-,N/A,,Overcast,50,2013-08-19 17:53:00
1:36 PM,80.6,69.8,70,30.06,10.0,NNE,8.1,-,N/A,,Overcast,30,2013-08-19 18:36:00
1:51 PM,80.6,69.8,70,30.05,10.0,NE,5.8,-,N/A,,Overcast,40,2013-08-19 18:51:00
1:53 PM,80.1,70.0,71,30.03,10.0,NNE,4.6,-,N/A,,Overcast,30,2013-08-19 18:53:00
2:01 PM,80.6,69.8,70,30.05,10.0,NE,4.6,-,N/A,,Overcast,40,2013-08-19 19:01:00
2:53 PM,84.9,71.1,63,30.01,10.0,Variable,5.8,-,N/A,,Overcast,0,2013-08-19 19:53:00
3:53 PM,84.9,69.1,59,29.99,10.0,Calm,Calm,-,N/A,,Clear,0,2013-08-19 20:53:00
4:53 PM,84.0,70.0,63,29.98,10.0,NW,3.5,-,N/A,,Scattered Clouds,320,2013-08-19 21:53:00
5:53 PM,87.1,68.0,53,29.97,10.0,Calm,Calm,-,N/A,,Clear,0,2013-08-19 22:53:00
6:53 PM,84.0,69.1,61,29.98,10.0,Calm,Calm,-,N/A,,Overcast,0,2013-08-19 23:53:00
7:53 PM,81.0,70.0,69,29.99,10.0,Calm,Calm,-,N/A,,Clear,0,2013-08-20 00:53:00
8:53 PM,77.0,71.1,82,30.00,10.0,Calm,Calm,-,N/A,,Clear,0,2013-08-20 01:53:00
9:53 PM,75.9,71.1,85,30.01,10.0,Calm,Calm,-,N/A,,Clear,0,2013-08-20 02:53:00
10:53 PM,75.0,71.1,87,30.01,10.0,Calm,Calm,-,N/A,,Clear,0,2013-08-20 03:53:00
11:53 PM,73.9,71.1,91,30.01,10.0,Calm,Calm,-,N/A,,Clear,0,2013-08-20 04:53:00